createdAt,value
2022-09-07T00:00:52.592Z,953.9171753
2022-09-07T00:01:53.052Z,953.9451294
2022-09-07T00:02:53.553Z,953.9523926
2022-09-07T00:03:54.440Z,953.9953003
2022-09-07T00:04:54.847Z,953.9648438
2022-09-07T00:05:55.230Z,953.9642334
2022-09-07T00:06:55.694Z,953.9575195
2022-09-07T00:07:56.126Z,953.946106
2022-09-07T00:08:56.557Z,953.9953003
2022-09-07T00:09:57.446Z,954.0150146
2022-09-07T00:11:28.584Z,954.0158081
2022-09-07T00:12:29.033Z,954.0594482
2022-09-07T00:13:29.482Z,954.0180664
2022-09-07T00:14:30.699Z,954.0009155
2022-09-07T00:15:31.144Z,953.9735718
2022-09-07T00:16:31.583Z,953.9406738
2022-09-07T00:17:31.966Z,953.9054565
2022-09-07T00:18:32.408Z,953.9169312
2022-09-07T00:19:32.838Z,953.9126587
2022-09-07T00:20:33.270Z,953.9487305
2022-09-07T00:21:33.716Z,953.9621582
2022-09-07T00:22:34.166Z,953.9284668
2022-09-07T00:23:34.599Z,954.017334
2022-09-07T00:24:35.585Z,954.062439
2022-09-07T00:25:36.005Z,954.0814209
2022-09-07T00:26:36.371Z,954.0903931
2022-09-07T00:27:36.836Z,954.0969238
2022-09-07T00:28:37.275Z,954.0650024
2022-09-07T00:29:38.600Z,954.0911865
2022-09-07T00:30:39.017Z,954.105957
2022-09-07T00:31:39.455Z,954.0953979
2022-09-07T00:32:39.898Z,954.1001587
2022-09-07T00:33:40.314Z,954.1749878
2022-09-07T00:34:41.702Z,954.1726685
2022-09-07T00:35:42.148Z,954.1955566
2022-09-07T00:36:43.122Z,954.1585083
2022-09-07T00:37:43.545Z,954.1070557
2022-09-07T00:38:43.954Z,954.1628418
2022-09-07T00:39:44.934Z,954.210083
2022-09-07T00:40:45.310Z,954.1657104
2022-09-07T00:41:45.674Z,954.1245117
2022-09-07T00:42:46.171Z,954.1066284
2022-09-07T00:43:47.090Z,954.090332
2022-09-07T00:44:48.104Z,954.0588379
2022-09-07T00:45:48.523Z,954.0738525
2022-09-07T00:46:49.070Z,954.0129395
2022-09-07T00:47:49.422Z,954.0300293
2022-09-07T00:48:49.845Z,954.0490723
2022-09-07T00:49:50.901Z,954.0523682
2022-09-07T00:50:51.420Z,954.0654907
2022-09-07T00:51:51.694Z,954.135498
2022-09-07T00:52:52.178Z,954.1707153
2022-09-07T00:53:53.396Z,954.1890869
2022-09-07T00:54:53.817Z,954.1896973
2022-09-07T00:55:54.361Z,954.1610718
2022-09-07T00:56:54.644Z,954.0942993
2022-09-07T00:57:55.124Z,954.072876
2022-09-07T00:58:55.551Z,954.012207
2022-09-07T00:59:55.958Z,953.9710693
2022-09-07T01:00:56.819Z,953.883728
2022-09-07T01:02:27.510Z,953.9198608
2022-09-07T01:03:27.827Z,953.8648682
2022-09-07T01:04:29.166Z,953.8411865
2022-09-07T01:05:29.557Z,953.8270874
2022-09-07T01:06:30.933Z,953.859375
2022-09-07T01:07:31.308Z,953.8659668
2022-09-07T01:08:31.999Z,953.8831177
2022-09-07T01:09:32.238Z,953.9037476
2022-09-07T01:10:32.633Z,953.9003296
2022-09-07T01:11:33.077Z,953.9282837
2022-09-07T01:12:33.440Z,953.9529419
2022-09-07T01:13:33.907Z,953.9933472
2022-09-07T01:14:35.109Z,954.0427246
2022-09-07T01:15:35.580Z,954.1102295
2022-09-07T01:16:35.951Z,954.1656494
2022-09-07T01:17:36.355Z,954.1254883
2022-09-07T01:18:36.897Z,954.104126
2022-09-07T01:19:37.252Z,954.118042
2022-09-07T01:20:37.666Z,954.0949097
2022-09-07T01:21:38.632Z,954.0375977
2022-09-07T01:22:38.998Z,954.0640869
2022-09-07T01:23:39.420Z,954.0491333
2022-09-07T01:24:40.599Z,954.0567017
2022-09-07T01:25:41.059Z,954.060791
2022-09-07T01:26:41.763Z,954.0353394
2022-09-07T01:27:42.152Z,954.0147095
2022-09-07T01:28:42.587Z,954.019043
2022-09-07T01:29:43.034Z,954.0059204
2022-09-07T01:30:43.533Z,953.9779663
2022-09-07T01:31:43.894Z,953.9689331
2022-09-07T01:32:44.294Z,953.992981
2022-09-07T01:33:44.733Z,953.9845581
2022-09-07T01:34:46.135Z,953.9831543
2022-09-07T01:35:46.544Z,953.9923706
2022-09-07T01:36:46.935Z,953.944519
2022-09-07T01:37:47.360Z,953.9782715
2022-09-07T01:38:47.759Z,953.9708862
2022-09-07T01:39:48.338Z,953.9609375
2022-09-07T01:40:48.671Z,953.9939575
2022-09-07T01:41:49.115Z,953.9273682
2022-09-07T01:42:49.498Z,953.947876
2022-09-07T01:43:50.607Z,954.0064087
2022-09-07T01:44:51.665Z,953.99646
2022-09-07T01:45:52.088Z,954.0089111
2022-09-07T01:46:52.500Z,954.0229492
2022-09-07T01:47:52.881Z,953.9901733
2022-09-07T01:48:53.263Z,953.9956055
2022-09-07T01:49:53.729Z,954.0458374
2022-09-07T01:50:54.904Z,954.0309448
2022-09-07T01:51:55.352Z,954.0473633
2022-09-07T01:52:56.185Z,954.0324707
2022-09-07T01:54:27.410Z,953.9634399
2022-09-07T01:55:27.853Z,953.9412231
2022-09-07T01:56:28.266Z,953.8852539
2022-09-07T01:57:28.672Z,953.8340454
2022-09-07T01:58:29.166Z,953.8981323
2022-09-07T01:59:29.444Z,953.9526367
2022-09-07T02:00:29.927Z,953.9415894
2022-09-07T02:01:30.380Z,954.0083008
2022-09-07T02:02:31.777Z,954.0321655
2022-09-07T02:03:32.006Z,954.0289307
2022-09-07T02:04:32.407Z,954.0228271
2022-09-07T02:05:33.680Z,954.043457
2022-09-07T02:06:34.091Z,954.0460205
2022-09-07T02:07:34.631Z,953.9932861
2022-09-07T02:08:34.909Z,954.0008545
2022-09-07T02:09:35.301Z,953.9620361
2022-09-07T02:10:35.731Z,954.015625
2022-09-07T02:11:36.173Z,954.0064697
2022-09-07T02:12:36.616Z,954.0056152
2022-09-07T02:13:36.980Z,953.9940796
2022-09-07T02:14:37.903Z,953.9857788
2022-09-07T02:15:38.416Z,953.9735718
2022-09-07T02:16:38.768Z,953.949585
2022-09-07T02:17:39.239Z,953.9291992
2022-09-07T02:18:39.640Z,953.9381104
2022-09-07T02:19:40.036Z,953.9396973
2022-09-07T02:20:40.511Z,953.9342041
2022-09-07T02:21:41.702Z,953.9728394
2022-09-07T02:22:42.251Z,953.9859619
2022-09-07T02:23:42.587Z,953.9974976
2022-09-07T02:24:43.918Z,954.0024414
2022-09-07T02:25:44.964Z,954.0270386
2022-09-07T02:26:45.410Z,953.96698
2022-09-07T02:27:45.881Z,953.9555664
2022-09-07T02:28:46.263Z,953.9440918
2022-09-07T02:29:46.654Z,953.9071655
2022-09-07T02:30:47.081Z,953.939209
2022-09-07T02:31:47.504Z,953.9163818
2022-09-07T02:32:47.944Z,953.9411011
2022-09-07T02:33:48.313Z,953.9295044
2022-09-07T02:34:49.411Z,953.9551392
2022-09-07T02:35:49.811Z,953.9591675
2022-09-07T02:36:50.268Z,953.9642334
2022-09-07T02:37:50.791Z,953.9232178
2022-09-07T02:38:51.083Z,953.9387207
2022-09-07T02:39:51.572Z,953.9182739
2022-09-07T02:40:51.894Z,953.9271851
2022-09-07T02:41:52.324Z,953.9411011
2022-09-07T02:42:53.638Z,953.9385986
2022-09-07T02:43:54.040Z,953.946106
2022-09-07T02:44:54.445Z,953.9055176
2022-09-07T02:45:54.932Z,953.9014282
2022-09-07T02:47:25.826Z,953.8850098
2022-09-07T02:48:26.266Z,953.8135986
2022-09-07T02:49:26.646Z,953.8448486
2022-09-07T02:50:27.025Z,953.8018799
2022-09-07T02:51:27.425Z,953.8250732
2022-09-07T02:52:27.878Z,953.7824097
2022-09-07T02:53:28.377Z,953.7609863
2022-09-07T02:54:28.758Z,953.7600708
2022-09-07T02:55:30.137Z,953.7067261
2022-09-07T02:56:30.611Z,953.7223511
2022-09-07T02:57:31.098Z,953.7455444
2022-09-07T02:58:31.711Z,953.772583
2022-09-07T02:59:31.948Z,953.7834473
2022-09-07T03:00:32.330Z,953.8007813
2022-09-07T03:01:32.799Z,953.7835083
2022-09-07T03:02:33.262Z,953.8421631
2022-09-07T03:03:33.610Z,953.8735352
2022-09-07T03:04:34.926Z,953.8308105
2022-09-07T03:05:35.910Z,953.8306885
2022-09-07T03:06:36.307Z,953.8450928
2022-09-07T03:07:39.042Z,953.8673706
2022-09-07T03:08:37.215Z,953.8476563
2022-09-07T03:09:37.615Z,953.897522
2022-09-07T03:10:38.018Z,953.8967896
2022-09-07T03:11:38.400Z,953.8574829
2022-09-07T03:12:39.429Z,953.8638916
2022-09-07T03:13:39.894Z,953.8203735
2022-09-07T03:14:40.922Z,953.8510742
2022-09-07T03:15:41.680Z,953.8304443
2022-09-07T03:16:42.031Z,953.7952881
2022-09-07T03:17:42.424Z,953.8001709
2022-09-07T03:18:42.905Z,953.7920532
2022-09-07T03:19:43.285Z,953.8084106
2022-09-07T03:20:43.754Z,953.8534546
2022-09-07T03:21:45.134Z,953.8709106
2022-09-07T03:22:45.509Z,953.8727417
2022-09-07T03:23:51.183Z,953.9020996
2022-09-07T03:24:46.926Z,953.8448486
2022-09-07T03:25:47.349Z,953.8283081
2022-09-07T03:26:47.756Z,953.8479614
2022-09-07T03:27:48.153Z,953.8581543
2022-09-07T03:28:48.629Z,953.7850952
2022-09-07T03:29:48.998Z,953.7859497
2022-09-07T03:30:49.452Z,953.7818604
2022-09-07T03:31:49.824Z,953.8139038
2022-09-07T03:32:50.221Z,953.7944336
2022-09-07T03:33:50.689Z,953.8035278
2022-09-07T03:34:51.652Z,953.7449951
2022-09-07T03:35:52.640Z,953.8151855
2022-09-07T03:36:53.076Z,953.7837524
2022-09-07T03:37:53.468Z,953.8217163
2022-09-07T03:38:53.922Z,953.8554688
2022-09-07T03:39:55.505Z,953.8120117
2022-09-07T03:41:26.111Z,953.8187256
2022-09-07T03:42:26.523Z,953.8016357
2022-09-07T03:43:26.936Z,953.8105469
2022-09-07T03:44:27.411Z,953.7564087
2022-09-07T03:45:28.632Z,953.7416992
2022-09-07T03:46:29.146Z,953.7318726
2022-09-07T03:47:29.473Z,953.748291
2022-09-07T03:48:30.149Z,953.7573242
2022-09-07T03:49:30.327Z,953.7600098
2022-09-07T03:50:30.745Z,953.7421265
2022-09-07T03:51:31.175Z,953.741394
2022-09-07T03:52:31.555Z,953.7045288
2022-09-07T03:53:32.623Z,953.7054443
2022-09-07T03:54:35.793Z,953.7012329
2022-09-07T03:55:34.109Z,953.6818848
2022-09-07T03:56:34.500Z,953.7062378
2022-09-07T03:57:34.916Z,953.718811
2022-09-07T03:58:35.339Z,953.6646118
2022-09-07T03:59:35.779Z,953.663147
2022-09-07T04:00:36.163Z,953.6498413
2022-09-07T04:01:36.602Z,953.6671753
2022-09-07T04:02:36.982Z,953.6878052
2022-09-07T04:03:37.337Z,953.6582642
2022-09-07T04:04:37.748Z,953.7243652
2022-09-07T04:05:38.633Z,953.743103
2022-09-07T04:06:39.060Z,953.7678833
2022-09-07T04:07:39.427Z,953.8114014
2022-09-07T04:08:39.809Z,953.8574829
2022-09-07T04:09:40.219Z,953.9265747
2022-09-07T04:10:40.609Z,953.9520874
2022-09-07T04:11:41.018Z,953.9084473
2022-09-07T04:12:41.687Z,953.8707275
2022-09-07T04:13:42.622Z,953.8500977
2022-09-07T04:14:43.030Z,953.8707275
2022-09-07T04:15:44.132Z,953.8526611
2022-09-07T04:16:44.651Z,953.8451538
2022-09-07T04:17:44.964Z,953.8494263
2022-09-07T04:18:45.366Z,953.8319702
2022-09-07T04:19:45.784Z,953.8494263
2022-09-07T04:20:46.173Z,953.8336182
2022-09-07T04:21:47.126Z,953.8676758
2022-09-07T04:22:50.422Z,953.7648926
2022-09-07T04:23:47.932Z,953.7493896
2022-09-07T04:24:48.347Z,953.7839355
2022-09-07T04:25:49.636Z,953.8325195
2022-09-07T04:26:50.036Z,953.8284912
2022-09-07T04:27:50.415Z,953.8035889
2022-09-07T04:28:50.842Z,953.850708
2022-09-07T04:29:52.066Z,953.8540649
2022-09-07T04:30:52.403Z,953.8361816
2022-09-07T04:31:52.744Z,953.8121948
2022-09-07T04:32:53.129Z,953.840332
2022-09-07T04:33:54.041Z,953.8453369
2022-09-07T04:35:24.615Z,953.8585815
2022-09-07T04:36:25.012Z,953.8513184
2022-09-07T04:37:25.370Z,953.8641968
2022-09-07T04:38:25.797Z,953.894043
2022-09-07T04:39:26.192Z,953.880249
2022-09-07T04:40:26.623Z,953.9238892
2022-09-07T04:41:26.982Z,953.9123535
2022-09-07T04:42:27.394Z,953.914978
2022-09-07T04:43:28.722Z,953.9313354
2022-09-07T04:44:29.051Z,953.8482666
2022-09-07T04:45:30.454Z,953.8540649
2022-09-07T04:46:30.878Z,953.8197021
2022-09-07T04:47:31.265Z,953.8132935
2022-09-07T04:48:31.887Z,953.7476807
2022-09-07T04:49:32.069Z,953.7312012
2022-09-07T04:50:32.512Z,953.7572632
2022-09-07T04:51:32.918Z,953.7572632
2022-09-07T04:52:33.950Z,953.7254639
2022-09-07T04:53:34.344Z,953.730957
2022-09-07T04:54:34.726Z,953.7524414
2022-09-07T04:55:35.948Z,953.734375
2022-09-07T04:56:36.369Z,953.7575684
2022-09-07T04:57:36.761Z,953.6901855
2022-09-07T04:58:37.140Z,953.6935425
2022-09-07T04:59:37.523Z,953.6481934
2022-09-07T05:00:37.938Z,953.6358643
2022-09-07T05:01:38.422Z,953.6754761
2022-09-07T05:02:38.765Z,953.711731
2022-09-07T05:03:39.092Z,953.7271729
2022-09-07T05:04:39.547Z,953.772522
2022-09-07T05:05:40.449Z,953.7626343
2022-09-07T05:06:40.833Z,953.7994385
2022-09-07T05:07:41.427Z,953.7737427
2022-09-07T05:08:41.868Z,953.784668
2022-09-07T05:09:42.297Z,953.7345581
2022-09-07T05:10:42.751Z,953.8405762
2022-09-07T05:11:43.146Z,953.8234253
2022-09-07T05:12:43.546Z,953.8570557
2022-09-07T05:13:43.968Z,953.8448486
2022-09-07T05:14:44.358Z,953.8457031
2022-09-07T05:15:45.475Z,953.836731
2022-09-07T05:16:45.940Z,953.897583
2022-09-07T05:17:46.257Z,953.8886719
2022-09-07T05:18:46.651Z,953.8909302
2022-09-07T05:19:47.040Z,953.9107056
2022-09-07T05:20:47.478Z,953.9331055
2022-09-07T05:21:47.842Z,953.9017944
2022-09-07T05:22:48.231Z,953.8970337
2022-09-07T05:23:48.668Z,953.8831177
2022-09-07T05:24:49.104Z,953.8937378
2022-09-07T05:25:49.525Z,953.9109497
2022-09-07T05:26:49.951Z,953.8970337
2022-09-07T05:27:50.329Z,953.9053345
2022-09-07T05:28:50.795Z,953.8643799
2022-09-07T05:31:17.792Z,953.8929443
2022-09-07T05:31:52.010Z,953.8979492
2022-09-07T05:32:52.390Z,953.90625
2022-09-07T05:35:23.814Z,953.9185791
2022-09-07T05:36:25.193Z,953.8898315
2022-09-07T05:37:25.575Z,953.8668823
2022-09-07T05:38:25.993Z,953.8850098
2022-09-07T05:39:26.399Z,953.8858032
2022-09-07T05:40:26.778Z,953.8579102
2022-09-07T05:41:27.189Z,953.8323975
2022-09-07T05:42:27.568Z,953.8110962
2022-09-07T05:43:27.968Z,953.7781372
2022-09-07T05:44:45.169Z,953.7543945
2022-09-07T05:45:29.583Z,953.7460938
2022-09-07T05:46:30.672Z,953.7870483
2022-09-07T05:47:31.109Z,953.7589111
2022-09-07T05:48:31.711Z,953.7904053
2022-09-07T05:49:31.917Z,953.8106079
2022-09-07T05:50:32.315Z,953.8132935
2022-09-07T05:51:32.729Z,953.8023682
2022-09-07T05:52:33.105Z,953.8393555
2022-09-07T05:53:33.517Z,953.8449707
2022-09-07T05:54:33.915Z,953.8356934
2022-09-07T05:55:34.335Z,953.8456421
2022-09-07T05:56:35.697Z,953.8347168
2022-09-07T05:57:36.066Z,953.8379517
2022-09-07T05:58:36.461Z,953.8423462
2022-09-07T05:59:36.857Z,953.8535767
2022-09-07T06:00:37.245Z,953.8228149
2022-09-07T06:01:37.787Z,953.8376465
2022-09-07T06:02:39.871Z,953.8426514
2022-09-07T06:03:39.052Z,953.8850098
2022-09-07T06:04:39.443Z,953.8792114
2022-09-07T06:05:40.472Z,953.8618164
2022-09-07T06:06:40.960Z,953.8510132
2022-09-07T06:07:41.527Z,953.8394775
2022-09-07T06:08:42.647Z,953.8583374
2022-09-07T06:10:43.844Z,953.8317261
2022-09-07T06:11:43.995Z,953.8012695
2022-09-07T06:12:46.916Z,953.8175049
2022-09-07T06:13:44.704Z,953.8051758
2022-09-07T06:14:45.091Z,953.8034668
2022-09-07T06:15:46.459Z,953.7681274
2022-09-07T06:16:46.970Z,953.7876587
2022-09-07T06:17:47.282Z,953.8301392
2022-09-07T06:18:47.697Z,953.8359985
2022-09-07T06:19:48.110Z,953.8775635
2022-09-07T06:20:48.507Z,953.9021606
2022-09-07T06:21:49.699Z,953.9126587
2022-09-07T06:22:50.130Z,953.9198608
2022-09-07T06:23:50.520Z,953.9405518
2022-09-07T06:24:50.909Z,953.9295044
2022-09-07T06:25:51.961Z,953.9547119
2022-09-07T06:27:22.851Z,953.9727173
2022-09-07T06:28:23.245Z,953.9726563
2022-09-07T06:29:23.637Z,953.9543457
2022-09-07T06:30:24.039Z,953.9709473
2022-09-07T06:31:24.488Z,953.9796753
2022-09-07T06:33:25.284Z,954.0256348
2022-09-07T06:34:25.643Z,954.0527954
2022-09-07T06:35:26.041Z,954.0584106
2022-09-07T06:36:27.159Z,954.0854492
2022-09-07T06:37:27.589Z,954.0598145
2022-09-07T06:38:31.716Z,954.1171265
2022-09-07T06:39:28.349Z,954.1203003
2022-09-07T06:40:29.666Z,954.1203003
2022-09-07T06:41:59.198Z,954.1498413
2022-09-07T06:42:30.596Z,954.1604614
2022-09-07T06:43:31.077Z,954.1333618
2022-09-07T06:44:31.438Z,954.1901855
2022-09-07T06:45:31.881Z,954.1845093
2022-09-07T06:47:32.692Z,954.2406006
2022-09-07T06:48:33.195Z,954.2752075
2022-09-07T06:49:33.470Z,954.2753296
2022-09-07T06:50:33.875Z,954.2817383
2022-09-07T06:51:35.175Z,954.3253784
2022-09-07T06:53:37.576Z,954.3513794
2022-09-07T06:55:00.982Z,954.3752441
2022-09-07T06:55:36.850Z,954.3989868
2022-09-07T06:56:38.180Z,954.4162598
2022-09-07T06:57:38.676Z,954.3677979
2022-09-07T06:58:42.306Z,954.3513184
2022-09-07T06:59:39.462Z,954.3399048
2022-09-07T07:00:40.703Z,954.3236084
2022-09-07T07:01:41.062Z,954.2545166
2022-09-07T07:02:41.791Z,954.2348633
2022-09-07T07:03:42.287Z,954.2365723
2022-09-07T07:04:42.588Z,954.2437744
2022-09-07T07:05:43.053Z,954.2159424
2022-09-07T07:06:44.243Z,954.1779785
2022-09-07T07:07:44.735Z,954.2148438
2022-09-07T07:08:45.112Z,954.2171631
2022-09-07T07:09:45.547Z,954.1934204
2022-09-07T07:10:45.969Z,954.1571655
2022-09-07T07:11:46.375Z,954.1539307
2022-09-07T07:12:46.843Z,954.1710205
2022-09-07T07:13:47.209Z,954.1512451
2022-09-07T07:14:48.282Z,954.166748
2022-09-07T07:15:48.635Z,954.1740723
2022-09-07T07:16:49.810Z,954.1551514
2022-09-07T07:17:58.053Z,954.163147
2022-09-07T07:18:50.492Z,954.1621704
2022-09-07T07:19:50.970Z,954.1693726
2022-09-07T07:20:52.477Z,954.1815796
2022-09-07T07:22:45.610Z,954.1367188
2022-09-07T07:23:23.481Z,954.1306152
2022-09-07T07:24:23.864Z,954.1074829
2022-09-07T07:25:24.983Z,954.1031494
2022-09-07T07:26:25.398Z,954.0617676
2022-09-07T07:27:26.499Z,954.0754395
2022-09-07T07:29:28.245Z,954.055481
2022-09-07T07:30:27.799Z,954.0275879
2022-09-07T07:31:28.226Z,954.0216675
2022-09-07T07:32:28.616Z,954.0206909
2022-09-07T07:33:29.016Z,953.9893799
2022-09-07T07:34:29.479Z,954.012207
2022-09-07T07:35:29.832Z,954.0193481
2022-09-07T07:36:30.984Z,954.0332031
2022-09-07T07:37:31.388Z,954.0454712
2022-09-07T07:39:00.685Z,954.0673218
2022-09-07T07:40:34.155Z,954.0317383
2022-09-07T07:41:58.742Z,954.0510864
2022-09-07T07:42:33.481Z,954.0387573
2022-09-07T07:43:33.995Z,954.012207
2022-09-07T07:44:34.353Z,954.0047607
2022-09-07T07:45:56.136Z,953.9870605
2022-09-07T07:46:35.261Z,953.9835815
2022-09-07T07:47:35.645Z,954.0056152
2022-09-07T07:48:36.066Z,954.043457
2022-09-07T07:49:36.453Z,954.0472412
2022-09-07T07:50:36.877Z,954.0792236
2022-09-07T07:53:41.857Z,954.0641479
2022-09-07T07:54:39.783Z,954.0910034
2022-09-07T07:55:43.640Z,954.0390015
2022-09-07T07:56:40.980Z,954.034668
2022-09-07T07:57:41.650Z,954.0499878
2022-09-07T07:58:42.070Z,954.0245361
2022-09-07T07:59:42.445Z,954.0515747
2022-09-07T08:00:53.686Z,954.0917358
2022-09-07T08:01:43.435Z,954.0939941
2022-09-07T08:02:43.801Z,954.0963135
2022-09-07T08:03:44.163Z,954.0728149
2022-09-07T08:04:44.530Z,954.0373535
2022-09-07T08:05:44.940Z,953.9787598
2022-09-07T08:06:45.396Z,953.9779663
2022-09-07T08:07:46.483Z,953.9092407
2022-09-07T08:08:47.025Z,953.9171753
2022-09-07T08:09:47.414Z,953.9039307
2022-09-07T08:10:47.688Z,953.9281006
2022-09-07T08:11:48.125Z,953.9142456
2022-09-07T08:12:48.542Z,953.9408569
2022-09-07T08:13:49.016Z,953.9604492
2022-09-07T08:14:49.383Z,954.007019
2022-09-07T08:15:49.892Z,953.9902954
2022-09-07T08:16:51.059Z,953.9456177
2022-09-07T08:18:21.664Z,953.9146729
2022-09-07T08:19:22.131Z,953.8831177
2022-09-07T08:20:22.527Z,953.8409424
2022-09-07T08:21:22.913Z,953.7944336
2022-09-07T08:22:23.342Z,953.8049927
2022-09-07T08:23:23.777Z,953.7963257
2022-09-07T08:24:24.230Z,953.8099976
2022-09-07T08:25:25.485Z,953.8082886
2022-09-07T08:26:25.882Z,953.7686157
2022-09-07T08:27:27.225Z,953.7904663
2022-09-07T08:28:27.645Z,953.8113403
2022-09-07T08:29:31.236Z,953.7921753
2022-09-07T08:30:28.493Z,953.7966919
2022-09-07T08:31:28.945Z,953.7937622
2022-09-07T08:32:29.336Z,953.8002319
2022-09-07T08:33:29.824Z,953.7701416
2022-09-07T08:34:30.175Z,953.7764282
2022-09-07T08:35:30.659Z,953.7910156
2022-09-07T08:36:31.060Z,953.7868652
2022-09-07T08:37:32.245Z,953.7768555
2022-09-07T08:38:32.649Z,953.7435913
2022-09-07T08:39:33.146Z,953.7126465
2022-09-07T08:40:34.216Z,953.7218628
2022-09-07T08:41:34.607Z,953.6851807
2022-09-07T08:42:35.051Z,953.6699829
2022-09-07T08:43:35.510Z,953.6928101
2022-09-07T08:44:35.944Z,953.6603394
2022-09-07T08:45:37.197Z,953.6062012
2022-09-07T08:46:37.720Z,953.6174316
2022-09-07T08:47:38.720Z,953.6459961
2022-09-07T08:48:39.134Z,953.6362305
2022-09-07T08:49:39.577Z,953.6369019
2022-09-07T08:50:39.949Z,953.6472168
2022-09-07T08:51:40.331Z,953.5942993
2022-09-07T08:52:40.775Z,953.6037598
2022-09-07T08:53:42.001Z,953.5826416
2022-09-07T08:54:42.484Z,953.579834
2022-09-07T08:55:42.852Z,953.5524902
2022-09-07T08:57:20.456Z,953.5505981
2022-09-07T08:57:44.402Z,953.5567017
2022-09-07T08:58:49.104Z,953.5250244
2022-09-07T08:59:45.290Z,953.5379028
2022-09-07T09:00:46.188Z,953.5413818
2022-09-07T09:02:26.918Z,953.5195313
2022-09-07T09:04:16.283Z,953.5845337
2022-09-07T09:05:17.776Z,953.5438232
2022-09-07T09:05:49.167Z,953.5565796
2022-09-07T09:06:11.621Z,953.5635986
2022-09-07T09:06:49.567Z,953.5165405
2022-09-07T09:08:21.744Z,953.4561157
2022-09-07T09:09:22.166Z,953.4523926
2022-09-07T09:10:22.799Z,953.4082642
2022-09-07T09:11:23.032Z,953.3954468
2022-09-07T09:12:23.430Z,953.350769
2022-09-07T09:13:23.841Z,953.3067017
2022-09-07T09:14:24.354Z,953.2915039
2022-09-07T09:15:25.254Z,953.2557983
2022-09-07T09:16:25.652Z,953.2106323
2022-09-07T09:17:26.729Z,953.1952515
2022-09-07T09:18:27.248Z,953.1948242
2022-09-07T09:19:27.595Z,953.125
2022-09-07T09:20:28.050Z,953.1417236
2022-09-07T09:21:29.204Z,953.1183472
2022-09-07T09:22:29.624Z,953.1293945
2022-09-07T09:23:31.056Z,953.1434937
2022-09-07T09:24:31.460Z,953.1489868
2022-09-07T09:25:31.965Z,953.1575928
2022-09-07T09:26:33.209Z,953.1173706
2022-09-07T09:27:34.183Z,953.1170044
2022-09-07T09:28:35.052Z,953.0991211
2022-09-07T09:29:35.125Z,953.0628052
2022-09-07T09:30:35.567Z,953.0409546
2022-09-07T09:31:36.739Z,953.0098267
2022-09-07T09:32:37.097Z,952.9851074
2022-09-07T09:33:37.538Z,953.0197144
2022-09-07T09:34:37.954Z,952.9956055
2022-09-07T09:35:39.257Z,953.0320435
2022-09-07T09:36:39.631Z,953.0186157
2022-09-07T09:37:40.707Z,953.017334
2022-09-07T09:38:41.180Z,953.0253906
2022-09-07T09:39:41.776Z,953.0482788
2022-09-07T09:40:42.754Z,953.0351563
2022-09-07T09:41:43.135Z,953.0762329
2022-09-07T09:42:43.550Z,953.0494385
2022-09-07T09:43:43.956Z,953.0159912
2022-09-07T09:44:44.449Z,953.0415039
2022-09-07T09:46:12.831Z,953.0264282
2022-09-07T09:46:45.308Z,953.0159302
2022-09-07T09:47:46.455Z,953.0103149
2022-09-07T09:48:46.758Z,952.9934082
2022-09-07T09:49:47.266Z,952.9981079
2022-09-07T09:52:51.859Z,952.9887695
2022-09-07T09:53:48.926Z,952.9517822
2022-09-07T09:55:34.306Z,952.9009399
2022-09-07T09:56:20.947Z,952.9202881
2022-09-07T09:57:21.322Z,952.8851318
2022-09-07T10:00:30.169Z,952.8566284
2022-09-07T10:01:25.335Z,952.862793
2022-09-07T10:03:55.716Z,952.847168
2022-09-07T10:04:25.865Z,952.8724976
2022-09-07T10:05:26.283Z,952.8654785
2022-09-07T10:06:26.745Z,952.854248
2022-09-07T10:07:28.007Z,952.8374023
2022-09-07T10:08:28.406Z,952.8148193
2022-09-07T10:09:28.883Z,952.8451538
2022-09-07T10:10:29.455Z,952.8588257
2022-09-07T10:12:05.111Z,952.8370361
2022-09-07T10:12:30.313Z,952.8059082
2022-09-07T10:13:30.749Z,952.8137207
2022-09-07T10:14:31.234Z,952.7457275
2022-09-07T10:15:33.658Z,952.7998657
2022-09-07T10:16:32.182Z,952.763916
2022-09-07T10:17:32.528Z,952.7434082
2022-09-07T10:18:33.057Z,952.710022
2022-09-07T10:19:33.504Z,952.7296753
2022-09-07T10:20:33.914Z,952.6864014
2022-09-07T10:21:34.356Z,952.711731
2022-09-07T10:22:34.708Z,952.6698608
2022-09-07T10:23:35.188Z,952.6660156
2022-09-07T10:24:36.265Z,952.6276855
2022-09-07T10:25:36.831Z,952.6105957
2022-09-07T10:26:37.302Z,952.5797119
2022-09-07T10:27:37.668Z,952.5570068
2022-09-07T10:29:06.991Z,952.5831909
2022-09-07T10:29:38.582Z,952.5877075
2022-09-07T10:30:39.169Z,952.5356445
2022-09-07T10:31:39.566Z,952.4779663
2022-09-07T10:32:39.890Z,952.4470215
2022-09-07T10:33:40.464Z,952.4440918
2022-09-07T10:34:40.804Z,952.4281006
2022-09-07T10:35:41.214Z,952.4502563
2022-09-07T10:36:42.253Z,952.3983765
2022-09-07T10:37:43.509Z,952.3328247
2022-09-07T10:38:43.960Z,952.3571777
2022-09-07T10:39:44.418Z,952.3518677
2022-09-07T10:40:44.799Z,952.2876587
2022-09-07T10:41:45.254Z,952.2779541
2022-09-07T10:43:20.721Z,952.2228394
2022-09-07T10:43:46.069Z,952.2285767
2022-09-07T10:44:46.493Z,952.2476807
2022-09-07T10:45:47.750Z,952.2109375
2022-09-07T10:46:58.379Z,952.2248535
2022-09-07T10:47:48.564Z,952.2335205
2022-09-07T10:49:20.287Z,952.2570801
2022-09-07T10:50:22.421Z,952.2358398
2022-09-07T10:51:21.106Z,952.2313843
2022-09-07T10:52:21.525Z,952.2151489
2022-09-07T10:53:40.973Z,952.2004395
2022-09-07T10:54:30.877Z,952.2670288
2022-09-07T10:55:23.397Z,952.2490845
2022-09-07T10:56:23.979Z,952.2199707
2022-09-07T10:57:24.359Z,952.2301636
2022-09-07T10:59:01.383Z,952.2276611
2022-09-07T10:59:25.764Z,952.1990356
2022-09-07T11:00:26.105Z,952.1871948
2022-09-07T11:01:26.557Z,952.1698608
2022-09-07T11:02:26.952Z,952.1358032
2022-09-07T11:03:27.750Z,952.0211182
2022-09-07T11:04:27.779Z,952.0426636
2022-09-07T11:05:33.639Z,951.9904785
2022-09-07T11:06:28.641Z,951.991272
2022-09-07T11:07:29.056Z,951.9776611
2022-09-07T11:08:30.722Z,951.9785767
2022-09-07T11:09:30.760Z,951.9456177
2022-09-07T11:10:31.183Z,951.9245605
2022-09-07T11:12:01.366Z,951.9040527
2022-09-07T11:12:32.958Z,951.8560791
2022-09-07T11:13:40.971Z,951.8955688
2022-09-07T11:14:33.826Z,951.8482666
2022-09-07T11:15:34.332Z,951.819397
2022-09-07T11:16:51.046Z,951.8059082
2022-09-07T11:17:35.080Z,951.757019